sensor_id;sensor_type;location;lat;lon;timestamp;pressure;altitude;pressure_sealevel;temperature;humidity
34297;BME280;20564;42.902;25.336;2022-07-29T00:02:04;97264.63;;;18.79;100.00
34297;BME280;20564;42.902;25.336;2022-07-29T00:04:34;97273.19;;;18.74;100.00
34297;BME280;20564;42.902;25.336;2022-07-29T00:07:03;97263.34;;;18.75;100.00
34297;BME280;20564;42.902;25.336;2022-07-29T00:09:32;97270.91;;;18.71;100.00
34297;BME280;20564;42.902;25.336;2022-07-29T00:12:17;97269.69;;;18.74;100.00
34297;BME280;20564;42.902;25.336;2022-07-29T00:14:54;97281.03;;;18.76;100.00
34297;BME280;20564;42.902;25.336;2022-07-29T00:17:23;97270.25;;;18.69;100.00
34297;BME280;20564;42.902;25.336;2022-07-29T00:19:50;97279.06;;;18.70;100.00
34297;BME280;20564;42.902;25.336;2022-07-29T00:22:19;97275.75;;;18.68;99.24
34297;BME280;20564;42.902;25.336;2022-07-29T00:24:52;97281.84;;;18.62;100.00
34297;BME280;20564;42.902;25.336;2022-07-29T00:27:19;97274.84;;;18.61;100.00
34297;BME280;20564;42.902;25.336;2022-07-29T00:29:47;97272.09;;;18.69;99.23
34297;BME280;20564;42.902;25.336;2022-07-29T00:32:14;97276.53;;;18.62;100.00
34297;BME280;20564;42.902;25.336;2022-07-29T00:34:42;97270.28;;;18.54;100.00
34297;BME280;20564;42.902;25.336;2022-07-29T00:37:27;97273.34;;;18.51;100.00
34297;BME280;20564;42.902;25.336;2022-07-29T00:39:55;97271.94;;;18.55;100.00
34297;BME280;20564;42.902;25.336;2022-07-29T00:42:23;97275.34;;;18.49;100.00
34297;BME280;20564;42.902;25.336;2022-07-29T00:44:50;97268.81;;;18.52;100.00
34297;BME280;20564;42.902;25.336;2022-07-29T00:47:19;97271.03;;;18.48;100.00
34297;BME280;20564;42.902;25.336;2022-07-29T00:49:47;97265.19;;;18.38;100.00
34297;BME280;20564;42.902;25.336;2022-07-29T00:52:14;97267.22;;;18.36;100.00
34297;BME280;20564;42.902;25.336;2022-07-29T00:54:43;97262.63;;;18.30;100.00
34297;BME280;20564;42.902;25.336;2022-07-29T00:57:12;97257.38;;;18.37;100.00
34297;BME280;20564;42.902;25.336;2022-07-29T00:59:40;97263.91;;;18.34;100.00
34297;BME280;20564;42.902;25.336;2022-07-29T01:02:08;97261.00;;;18.29;100.00
34297;BME280;20564;42.902;25.336;2022-07-29T01:04:36;97264.28;;;18.31;100.00
34297;BME280;20564;42.902;25.336;2022-07-29T01:07:04;97264.84;;;18.26;100.00
34297;BME280;20564;42.902;25.336;2022-07-29T01:09:32;97272.84;;;18.26;100.00
34297;BME280;20564;42.902;25.336;2022-07-29T01:12:16;97271.47;;;18.16;100.00
34297;BME280;20564;42.902;25.336;2022-07-29T01:14:45;97270.09;;;18.20;100.00
34297;BME280;20564;42.902;25.336;2022-07-29T01:29:13;97254.88;;;18.14;100.00
34297;BME280;20564;42.902;25.336;2022-07-29T01:34:53;97262.84;;;18.14;100.00
34297;BME280;20564;42.902;25.336;2022-07-29T01:37:29;97253.75;;;18.08;100.00
34297;BME280;20564;42.902;25.336;2022-07-29T01:40:03;97255.59;;;18.07;100.00
34297;BME280;20564;42.902;25.336;2022-07-29T01:42:37;97261.28;;;18.04;100.00
34297;BME280;20564;42.902;25.336;2022-07-29T01:45:10;97263.31;;;18.02;100.00
34297;BME280;20564;42.902;25.336;2022-07-29T01:50:20;97249.47;;;17.92;100.00
34297;BME280;20564;42.902;25.336;2022-07-29T01:52:56;97249.84;;;17.89;100.00
34297;BME280;20564;42.902;25.336;2022-07-29T01:55:31;97249.47;;;17.92;100.00
34297;BME280;20564;42.902;25.336;2022-07-29T01:58:01;97250.28;;;17.93;100.00
34297;BME280;20564;42.902;25.336;2022-07-29T02:00:31;97248.44;;;17.93;100.00
34297;BME280;20564;42.902;25.336;2022-07-29T02:03:01;97247.78;;;17.91;100.00
34297;BME280;20564;42.902;25.336;2022-07-29T02:05:30;97243.31;;;17.92;100.00
34297;BME280;20564;42.902;25.336;2022-07-29T02:08:01;97246.16;;;17.90;100.00
34297;BME280;20564;42.902;25.336;2022-07-29T02:10:31;97240.09;;;17.96;100.00
34297;BME280;20564;42.902;25.336;2022-07-29T02:13:00;97242.47;;;17.91;100.00
34297;BME280;20564;42.902;25.336;2022-07-29T02:15:33;97241.94;;;17.81;100.00
34297;BME280;20564;42.902;25.336;2022-07-29T02:18:07;97249.28;;;17.79;100.00
34297;BME280;20564;42.902;25.336;2022-07-29T02:20:37;97232.56;;;17.70;100.00
34297;BME280;20564;42.902;25.336;2022-07-29T02:23:06;97246.69;;;17.71;100.00
34297;BME280;20564;42.902;25.336;2022-07-29T02:25:34;97241.38;;;17.71;100.00
34297;BME280;20564;42.902;25.336;2022-07-29T02:28:07;97246.31;;;17.74;100.00
34297;BME280;20564;42.902;25.336;2022-07-29T02:30:39;97232.47;;;17.78;100.00
34297;BME280;20564;42.902;25.336;2022-07-29T02:33:09;97239.66;;;17.78;100.00
34297;BME280;20564;42.902;25.336;2022-07-29T02:35:43;97248.13;;;17.73;100.00
34297;BME280;20564;42.902;25.336;2022-07-29T02:38:14;97244.03;;;17.71;100.00
34297;BME280;20564;42.902;25.336;2022-07-29T02:41:03;97246.22;;;17.67;100.00
34297;BME280;20564;42.902;25.336;2022-07-29T02:43:31;97250.63;;;17.75;100.00
34297;BME280;20564;42.902;25.336;2022-07-29T02:46:03;97257.78;;;17.74;100.00
34297;BME280;20564;42.902;25.336;2022-07-29T02:48:51;97248.22;;;17.65;100.00
34297;BME280;20564;42.902;25.336;2022-07-29T02:51:23;97254.78;;;17.63;100.00
34297;BME280;20564;42.902;25.336;2022-07-29T02:54:20;97251.00;;;17.57;100.00
34297;BME280;20564;42.902;25.336;2022-07-29T02:56:53;97256.13;;;17.58;100.00
34297;BME280;20564;42.902;25.336;2022-07-29T02:59:25;97255.13;;;17.59;100.00
34297;BME280;20564;42.902;25.336;2022-07-29T03:01:55;97248.13;;;17.58;100.00
34297;BME280;20564;42.902;25.336;2022-07-29T03:04:24;97252.91;;;17.48;100.00
34297;BME280;20564;42.902;25.336;2022-07-29T03:06:53;97256.97;;;17.44;100.00
34297;BME280;20564;42.902;25.336;2022-07-29T03:09:20;97258.50;;;17.39;100.00
34297;BME280;20564;42.902;25.336;2022-07-29T03:11:49;97263.00;;;17.38;100.00
34297;BME280;20564;42.902;25.336;2022-07-29T03:14:18;97262.63;;;17.41;100.00
34297;BME280;20564;42.902;25.336;2022-07-29T03:16:48;97264.28;;;17.42;100.00
34297;BME280;20564;42.902;25.336;2022-07-29T03:19:16;97267.97;;;17.41;100.00
34297;BME280;20564;42.902;25.336;2022-07-29T03:21:44;97268.78;;;17.42;100.00
34297;BME280;20564;42.902;25.336;2022-07-29T03:24:24;97267.97;;;17.41;100.00
34297;BME280;20564;42.902;25.336;2022-07-29T03:26:51;97272.84;;;17.52;100.00
34297;BME280;20564;42.902;25.336;2022-07-29T03:29:19;97276.13;;;17.54;100.00
34297;BME280;20564;42.902;25.336;2022-07-29T03:31:46;97280.16;;;17.50;100.00
34297;BME280;20564;42.902;25.336;2022-07-29T03:34:14;97275.84;;;17.49;100.00
34297;BME280;20564;42.902;25.336;2022-07-29T03:36:41;97282.19;;;17.48;100.00
34297;BME280;20564;42.902;25.336;2022-07-29T03:39:09;97285.84;;;17.47;100.00
34297;BME280;20564;42.902;25.336;2022-07-29T03:41:38;97299.09;;;17.55;100.00
34297;BME280;20564;42.902;25.336;2022-07-29T03:44:08;97297.34;;;17.63;100.00
34297;BME280;20564;42.902;25.336;2022-07-29T03:46:37;97300.38;;;17.59;100.00
34297;BME280;20564;42.902;25.336;2022-07-29T03:49:06;97306.22;;;17.55;100.00
34297;BME280;20564;42.902;25.336;2022-07-29T03:51:35;97306.31;;;17.62;100.00
34297;BME280;20564;42.902;25.336;2022-07-29T03:54:03;97300.28;;;17.68;100.00
34297;BME280;20564;42.902;25.336;2022-07-29T03:56:43;97305.72;;;17.74;100.00
34297;BME280;20564;42.902;25.336;2022-07-29T03:59:17;97306.53;;;17.75;100.00
34297;BME280;20564;42.902;25.336;2022-07-29T04:01:47;97303.53;;;17.78;100.00
34297;BME280;20564;42.902;25.336;2022-07-29T04:04:14;97304.53;;;17.77;100.00
34297;BME280;20564;42.902;25.336;2022-07-29T04:06:45;97314.81;;;17.80;100.00
34297;BME280;20564;42.902;25.336;2022-07-29T04:09:14;97313.63;;;17.82;100.00
34297;BME280;20564;42.902;25.336;2022-07-29T04:11:44;97311.25;;;17.88;100.00
34297;BME280;20564;42.902;25.336;2022-07-29T04:14:28;97315.75;;;17.87;100.00
34297;BME280;20564;42.902;25.336;2022-07-29T04:16:55;97318.06;;;18.05;100.00
34297;BME280;20564;42.902;25.336;2022-07-29T04:19:22;97322.19;;;18.07;100.00
34297;BME280;20564;42.902;25.336;2022-07-29T04:21:49;97313.00;;;18.25;100.00
34297;BME280;20564;42.902;25.336;2022-07-29T04:24:16;97314.44;;;18.42;100.00
34297;BME280;20564;42.902;25.336;2022-07-29T04:26:48;97317.06;;;18.57;100.00
34297;BME280;20564;42.902;25.336;2022-07-29T04:29:15;97321.38;;;18.73;100.00
34297;BME280;20564;42.902;25.336;2022-07-29T04:31:43;97317.06;;;18.93;100.00
34297;BME280;20564;42.902;25.336;2022-07-29T04:34:24;97303.75;;;19.15;100.00
34297;BME280;20564;42.902;25.336;2022-07-29T04:37:01;97307.72;;;19.47;99.00
34297;BME280;20564;42.902;25.336;2022-07-29T04:39:46;97312.88;;;19.77;99.02
34297;BME280;20564;42.902;25.336;2022-07-29T04:42:17;97308.13;;;20.00;97.68
34297;BME280;20564;42.902;25.336;2022-07-29T04:45:06;97311.97;;;20.32;96.74
34297;BME280;20564;42.902;25.336;2022-07-29T04:47:40;97313.13;;;20.58;94.90
34297;BME280;20564;42.902;25.336;2022-07-29T04:50:08;97304.34;;;20.84;92.63
34297;BME280;20564;42.902;25.336;2022-07-29T04:52:39;97312.63;;;21.09;92.38
34297;BME280;20564;42.902;25.336;2022-07-29T04:55:30;97318.06;;;21.35;90.63
34297;BME280;20564;42.902;25.336;2022-07-29T04:57:58;97314.56;;;21.55;88.83
34297;BME280;20564;42.902;25.336;2022-07-29T05:00:28;97312.47;;;21.70;85.27
34297;BME280;20564;42.902;25.336;2022-07-29T05:03:07;97305.25;;;21.90;85.00
34297;BME280;20564;42.902;25.336;2022-07-29T05:05:45;97316.75;;;22.18;83.04
34297;BME280;20564;42.902;25.336;2022-07-29T05:08:25;97314.63;;;22.39;83.51
34297;BME280;20564;42.902;25.336;2022-07-29T05:10:59;97317.59;;;22.63;80.57
34297;BME280;20564;42.902;25.336;2022-07-29T05:13:38;97310.66;;;22.87;78.20
34297;BME280;20564;42.902;25.336;2022-07-29T05:16:13;97314.31;;;23.06;77.46
34297;BME280;20564;42.902;25.336;2022-07-29T05:18:41;97320.81;;;23.23;78.74
34297;BME280;20564;42.902;25.336;2022-07-29T05:21:09;97317.13;;;23.43;77.87
34297;BME280;20564;42.902;25.336;2022-07-29T05:23:36;97320.94;;;23.60;76.74
34297;BME280;20564;42.902;25.336;2022-07-29T05:26:06;97314.69;;;23.66;75.85
34297;BME280;20564;42.902;25.336;2022-07-29T05:28:37;97317.63;;;23.58;76.04
34297;BME280;20564;42.902;25.336;2022-07-29T05:31:04;97314.63;;;23.73;75.86
34297;BME280;20564;42.902;25.336;2022-07-29T05:33:32;97313.25;;;23.89;74.31
34297;BME280;20564;42.902;25.336;2022-07-29T05:36:01;97315.97;;;24.07;72.26
34297;BME280;20564;42.902;25.336;2022-07-29T05:38:29;97304.47;;;24.18;71.21
34297;BME280;20564;42.902;25.336;2022-07-29T05:40:57;97311.47;;;24.38;72.36
34297;BME280;20564;42.902;25.336;2022-07-29T05:43:28;97304.25;;;24.57;70.28
34297;BME280;20564;42.902;25.336;2022-07-29T05:45:56;97304.44;;;24.73;69.14
34297;BME280;20564;42.902;25.336;2022-07-29T05:48:23;97305.00;;;24.94;69.46
34297;BME280;20564;42.902;25.336;2022-07-29T05:50:51;97306.63;;;25.13;68.50
34297;BME280;20564;42.902;25.336;2022-07-29T05:53:18;97301.25;;;25.37;67.22
34297;BME280;20564;42.902;25.336;2022-07-29T05:55:50;97307.03;;;25.52;65.66
34297;BME280;20564;42.902;25.336;2022-07-29T05:58:17;97303.28;;;25.65;65.72
34297;BME280;20564;42.902;25.336;2022-07-29T06:00:44;97303.06;;;25.78;65.80
34297;BME280;20564;42.902;25.336;2022-07-29T06:03:11;97300.28;;;26.08;64.27
34297;BME280;20564;42.902;25.336;2022-07-29T06:05:39;97301.63;;;26.34;62.61
34297;BME280;20564;42.902;25.336;2022-07-29T06:08:06;97300.91;;;26.62;60.54
34297;BME280;20564;42.902;25.336;2022-07-29T06:10:37;97296.50;;;26.73;63.77
34297;BME280;20564;42.902;25.336;2022-07-29T06:13:04;97293.44;;;26.98;61.75
34297;BME280;20564;42.902;25.336;2022-07-29T06:15:31;97292.06;;;27.41;58.60
34297;BME280;20564;42.902;25.336;2022-07-29T06:17:59;97286.81;;;27.51;59.32
34297;BME280;20564;42.902;25.336;2022-07-29T06:20:29;97288.78;;;27.73;60.19
34297;BME280;20564;42.902;25.336;2022-07-29T06:22:57;97285.03;;;27.91;55.78
34297;BME280;20564;42.902;25.336;2022-07-29T06:25:24;97287.81;;;28.18;57.37
34297;BME280;20564;42.902;25.336;2022-07-29T06:27:52;97288.75;;;28.45;55.25
34297;BME280;20564;42.902;25.336;2022-07-29T06:30:19;97285.81;;;28.74;53.18
34297;BME280;20564;42.902;25.336;2022-07-29T06:32:46;97276.16;;;28.83;53.48
34297;BME280;20564;42.902;25.336;2022-07-29T06:35:14;97277.91;;;28.94;52.17
34297;BME280;20564;42.902;25.336;2022-07-29T06:38:04;97279.28;;;29.24;51.83
34297;BME280;20564;42.902;25.336;2022-07-29T06:40:51;97275.31;;;29.64;51.17
34297;BME280;20564;42.902;25.336;2022-07-29T06:43:31;97278.19;;;29.89;49.06
34297;BME280;20564;42.902;25.336;2022-07-29T06:46:02;97271.22;;;29.98;49.80
34297;BME280;20564;42.902;25.336;2022-07-29T06:48:30;97276.13;;;30.07;48.24
34297;BME280;20564;42.902;25.336;2022-07-29T06:50:58;97274.75;;;30.09;48.95
34297;BME280;20564;42.902;25.336;2022-07-29T06:53:26;97270.25;;;30.20;48.56
34297;BME280;20564;42.902;25.336;2022-07-29T06:55:53;97280.16;;;30.51;48.90
34297;BME280;20564;42.902;25.336;2022-07-29T06:58:20;97275.63;;;30.72;47.80
34297;BME280;20564;42.902;25.336;2022-07-29T07:00:48;97275.94;;;30.76;47.80
34297;BME280;20564;42.902;25.336;2022-07-29T07:03:15;97273.78;;;30.88;46.24
34297;BME280;20564;42.902;25.336;2022-07-29T07:05:43;97270.25;;;30.93;46.60
34297;BME280;20564;42.902;25.336;2022-07-29T07:08:11;97268.09;;;31.05;46.99
34297;BME280;20564;42.902;25.336;2022-07-29T07:10:39;97267.28;;;31.25;46.29
34297;BME280;20564;42.902;25.336;2022-07-29T07:13:07;97269.22;;;31.40;46.62
34297;BME280;20564;42.902;25.336;2022-07-29T07:15:35;97262.97;;;31.55;45.08
34297;BME280;20564;42.902;25.336;2022-07-29T07:18:06;97266.75;;;31.69;45.18
34297;BME280;20564;42.902;25.336;2022-07-29T07:20:34;97260.19;;;32.06;45.13
34297;BME280;20564;42.902;25.336;2022-07-29T07:23:01;97271.00;;;32.36;43.58
34297;BME280;20564;42.902;25.336;2022-07-29T07:25:29;97255.75;;;32.30;40.91
34297;BME280;20564;42.902;25.336;2022-07-29T07:27:56;97260.59;;;32.38;40.21
34297;BME280;20564;42.902;25.336;2022-07-29T07:30:23;97251.66;;;32.33;37.17
34297;BME280;20564;42.902;25.336;2022-07-29T07:32:50;97255.75;;;32.30;38.09
34297;BME280;20564;42.902;25.336;2022-07-29T07:35:17;97248.16;;;32.22;36.99
34297;BME280;20564;42.902;25.336;2022-07-29T07:37:44;97257.38;;;32.31;38.19
34297;BME280;20564;42.902;25.336;2022-07-29T07:40:11;97253.97;;;32.65;36.94
34297;BME280;20564;42.902;25.336;2022-07-29T07:42:44;97250.44;;;33.09;37.33
34297;BME280;20564;42.902;25.336;2022-07-29T07:45:12;97249.81;;;33.22;35.56
34297;BME280;20564;42.902;25.336;2022-07-29T07:47:42;97239.75;;;33.18;35.32
34297;BME280;20564;42.902;25.336;2022-07-29T07:50:11;97247.13;;;33.17;35.28
34297;BME280;20564;42.902;25.336;2022-07-29T07:52:51;97245.66;;;33.30;34.09
34297;BME280;20564;42.902;25.336;2022-07-29T07:55:19;97235.47;;;33.41;33.48
34297;BME280;20564;42.902;25.336;2022-07-29T07:57:46;97242.53;;;33.42;32.81
34297;BME280;20564;42.902;25.336;2022-07-29T08:00:14;97243.66;;;33.41;32.85
34297;BME280;20564;42.902;25.336;2022-07-29T08:02:42;97235.97;;;33.13;32.80
34297;BME280;20564;42.902;25.336;2022-07-29T08:05:12;97239.44;;;33.24;32.45
34297;BME280;20564;42.902;25.336;2022-07-29T08:07:47;97238.34;;;33.25;32.44
34297;BME280;20564;42.902;25.336;2022-07-29T08:10:15;97241.97;;;33.45;31.32
34297;BME280;20564;42.902;25.336;2022-07-29T08:13:07;97231.06;;;33.45;31.60
34297;BME280;20564;42.902;25.336;2022-07-29T08:15:34;97232.19;;;33.44;31.92
34297;BME280;20564;42.902;25.336;2022-07-29T08:18:03;97226.34;;;33.55;30.99
34297;BME280;20564;42.902;25.336;2022-07-29T08:20:35;97231.81;;;33.55;30.87
34297;BME280;20564;42.902;25.336;2022-07-29T08:23:02;97224.00;;;33.44;30.73
34297;BME280;20564;42.902;25.336;2022-07-29T08:25:31;97228.59;;;33.48;31.71
34297;BME280;20564;42.902;25.336;2022-07-29T08:28:05;97225.22;;;33.27;31.15
34297;BME280;20564;42.902;25.336;2022-07-29T08:30:32;97222.97;;;33.34;31.92
34297;BME280;20564;42.902;25.336;2022-07-29T08:33:00;97222.28;;;33.53;31.07
34297;BME280;20564;42.902;25.336;2022-07-29T08:35:27;97230.69;;;33.85;31.00
34297;BME280;20564;42.902;25.336;2022-07-29T08:38:00;97218.16;;;33.84;29.10
34297;BME280;20564;42.902;25.336;2022-07-29T08:40:30;97217.97;;;34.05;30.60
34297;BME280;20564;42.902;25.336;2022-07-29T08:43:03;97224.13;;;34.16;30.47
34297;BME280;20564;42.902;25.336;2022-07-29T08:45:43;97229.09;;;34.32;29.20
34297;BME280;20564;42.902;25.336;2022-07-29T08:48:16;97226.03;;;34.58;29.76
34297;BME280;20564;42.902;25.336;2022-07-29T08:50:44;97219.03;;;34.71;29.65
34297;BME280;20564;42.902;25.336;2022-07-29T08:53:16;97229.41;;;34.74;28.91
34297;BME280;20564;42.902;25.336;2022-07-29T08:55:47;97223.66;;;34.51;28.57
34297;BME280;20564;42.902;25.336;2022-07-29T08:58:14;97225.91;;;34.25;30.69
34297;BME280;20564;42.902;25.336;2022-07-29T09:00:46;97224.41;;;34.14;30.30
34297;BME280;20564;42.902;25.336;2022-07-29T09:03:21;97217.00;;;34.39;29.23
34297;BME280;20564;42.902;25.336;2022-07-29T09:05:49;97219.88;;;34.47;29.28
34297;BME280;20564;42.902;25.336;2022-07-29T09:08:18;97215.56;;;34.65;28.76
34297;BME280;20564;42.902;25.336;2022-07-29T09:10:45;97213.94;;;34.64;28.72
34297;BME280;20564;42.902;25.336;2022-07-29T09:13:16;97211.41;;;34.49;28.67
34297;BME280;20564;42.902;25.336;2022-07-29T09:15:43;97218.03;;;34.43;29.13
34297;BME280;20564;42.902;25.336;2022-07-29T09:18:10;97208.13;;;34.47;27.40
34297;BME280;20564;42.902;25.336;2022-07-29T09:20:56;97206.69;;;34.73;28.32
34297;BME280;20564;42.902;25.336;2022-07-29T09:24:09;97200.31;;;34.97;27.39
34297;BME280;20564;42.902;25.336;2022-07-29T09:26:39;97194.63;;;34.93;27.64
34297;BME280;20564;42.902;25.336;2022-07-29T09:31:39;97197.16;;;34.90;28.60
34297;BME280;20564;42.902;25.336;2022-07-29T09:34:08;97188.22;;;35.03;28.47
34297;BME280;20564;42.902;25.336;2022-07-29T09:36:48;97195.09;;;35.00;29.46
34297;BME280;20564;42.902;25.336;2022-07-29T09:39:27;97189.84;;;35.04;28.48
34297;BME280;20564;42.902;25.336;2022-07-29T09:41:56;97197.88;;;34.95;28.05
34297;BME280;20564;42.902;25.336;2022-07-29T09:44:25;97186.59;;;35.02;27.97
34297;BME280;20564;42.902;25.336;2022-07-29T09:46:59;97196.09;;;35.23;28.16
34297;BME280;20564;42.902;25.336;2022-07-29T09:49:35;97186.50;;;35.40;28.06
34297;BME280;20564;42.902;25.336;2022-07-29T09:52:08;97184.63;;;35.54;27.63
34297;BME280;20564;42.902;25.336;2022-07-29T09:54:36;97187.50;;;35.77;28.07
34297;BME280;20564;42.902;25.336;2022-07-29T09:57:05;97191.41;;;36.03;27.23
34297;BME280;20564;42.902;25.336;2022-07-29T09:59:33;97183.53;;;35.96;26.53
34297;BME280;20564;42.902;25.336;2022-07-29T10:02:00;97179.72;;;35.84;27.37
34297;BME280;20564;42.902;25.336;2022-07-29T10:04:41;97179.59;;;36.16;27.44
34297;BME280;20564;42.902;25.336;2022-07-29T10:07:09;97183.97;;;36.17;27.83
34297;BME280;20564;42.902;25.336;2022-07-29T10:09:38;97176.84;;;35.89;27.28
34297;BME280;20564;42.902;25.336;2022-07-29T10:12:10;97185.69;;;35.86;26.90
34297;BME280;20564;42.902;25.336;2022-07-29T10:14:41;97175.44;;;35.78;26.57
34297;BME280;20564;42.902;25.336;2022-07-29T10:17:10;97178.38;;;35.35;27.81
34297;BME280;20564;42.902;25.336;2022-07-29T10:19:38;97177.09;;;35.13;27.95
34297;BME280;20564;42.902;25.336;2022-07-29T10:22:10;97167.69;;;35.19;28.58
34297;BME280;20564;42.902;25.336;2022-07-29T10:24:38;97176.63;;;34.92;28.33
34297;BME280;20564;42.902;25.336;2022-07-29T10:27:07;97161.59;;;34.90;27.96
34297;BME280;20564;42.902;25.336;2022-07-29T10:29:35;97165.88;;;34.96;27.90
34297;BME280;20564;42.902;25.336;2022-07-29T10:32:28;97150.88;;;34.93;29.01
34297;BME280;20564;42.902;25.336;2022-07-29T10:38:21;97157.53;;;35.06;28.18
34297;BME280;20564;42.902;25.336;2022-07-29T10:44:16;97141.34;;;35.23;27.49
34297;BME280;20564;42.902;25.336;2022-07-29T10:46:45;97141.25;;;35.28;28.61
34297;BME280;20564;42.902;25.336;2022-07-29T10:52:07;97134.13;;;35.60;29.02
34297;BME280;20564;42.902;25.336;2022-07-29T10:57:20;97136.59;;;36.03;28.50
34297;BME280;20564;42.902;25.336;2022-07-29T11:05:14;97138.34;;;35.99;27.07
34297;BME280;20564;42.902;25.336;2022-07-29T11:10:47;97130.59;;;35.87;28.04
34297;BME280;20564;42.902;25.336;2022-07-29T11:13:46;97130.16;;;35.94;27.39
34297;BME280;20564;42.902;25.336;2022-07-29T11:16:15;97125.50;;;36.08;27.11
34297;BME280;20564;42.902;25.336;2022-07-29T11:21:51;97123.69;;;36.04;27.10
34297;BME280;20564;42.902;25.336;2022-07-29T11:24:30;97130.56;;;36.29;27.08
34297;BME280;20564;42.902;25.336;2022-07-29T11:27:14;97119.75;;;36.46;26.57
34297;BME280;20564;42.902;25.336;2022-07-29T11:29:55;97121.78;;;36.54;26.88
34297;BME280;20564;42.902;25.336;2022-07-29T11:32:25;97119.09;;;36.63;27.39
34297;BME280;20564;42.902;25.336;2022-07-29T11:35:19;97121.81;;;36.27;25.89
34297;BME280;20564;42.902;25.336;2022-07-29T11:38:26;97119.16;;;35.99;27.54
34297;BME280;20564;42.902;25.336;2022-07-29T11:41:20;97122.28;;;35.79;27.28
34297;BME280;20564;42.902;25.336;2022-07-29T11:43:56;97119.25;;;35.66;27.71
34297;BME280;20564;42.902;25.336;2022-07-29T11:46:47;97106.34;;;35.81;27.55
34297;BME280;20564;42.902;25.336;2022-07-29T11:49:21;97103.09;;;35.65;27.95
34297;BME280;20564;42.902;25.336;2022-07-29T11:51:59;97101.28;;;35.60;27.92
34297;BME280;20564;42.902;25.336;2022-07-29T11:54:34;97104.63;;;35.85;27.69
34297;BME280;20564;42.902;25.336;2022-07-29T11:57:21;97100.56;;;35.96;26.37
34297;BME280;20564;42.902;25.336;2022-07-29T12:00:09;97092.25;;;36.01;26.85
34297;BME280;20564;42.902;25.336;2022-07-29T12:02:41;97093.56;;;36.04;27.63
34297;BME280;20564;42.902;25.336;2022-07-29T12:05:14;97087.59;;;35.74;26.96
34297;BME280;20564;42.902;25.336;2022-07-29T12:07:49;97088.81;;;35.68;26.95
34297;BME280;20564;42.902;25.336;2022-07-29T12:10:18;97082.91;;;35.74;27.30
34297;BME280;20564;42.902;25.336;2022-07-29T12:12:56;97085.66;;;35.74;27.04
34297;BME280;20564;42.902;25.336;2022-07-29T12:15:24;97076.63;;;35.88;25.93
34297;BME280;20564;42.902;25.336;2022-07-29T12:18:15;97072.97;;;35.79;27.25
34297;BME280;20564;42.902;25.336;2022-07-29T12:20:47;97072.28;;;35.73;26.86
34297;BME280;20564;42.902;25.336;2022-07-29T12:23:15;97065.88;;;35.78;26.38
34297;BME280;20564;42.902;25.336;2022-07-29T12:25:44;97071.16;;;35.74;27.12
34297;BME280;20564;42.902;25.336;2022-07-29T12:28:15;97070.44;;;35.41;27.07
34297;BME280;20564;42.902;25.336;2022-07-29T12:30:53;97079.72;;;35.12;28.48
34297;BME280;20564;42.902;25.336;2022-07-29T12:33:25;97074.50;;;34.97;28.22
34297;BME280;20564;42.902;25.336;2022-07-29T12:35:57;97077.78;;;34.80;28.74
34297;BME280;20564;42.902;25.336;2022-07-29T12:38:34;97072.22;;;34.71;28.06
34297;BME280;20564;42.902;25.336;2022-07-29T12:41:01;97069.72;;;34.89;28.24
34297;BME280;20564;42.902;25.336;2022-07-29T12:43:30;97067.66;;;35.13;29.07
34297;BME280;20564;42.902;25.336;2022-07-29T12:46:12;97062.00;;;35.23;27.33
34297;BME280;20564;42.902;25.336;2022-07-29T12:48:41;97061.28;;;35.32;27.98
34297;BME280;20564;42.902;25.336;2022-07-29T12:51:10;97050.44;;;35.26;27.17
34297;BME280;20564;42.902;25.336;2022-07-29T12:53:38;97062.94;;;34.86;28.01
34297;BME280;20564;42.902;25.336;2022-07-29T12:56:06;97058.91;;;34.46;28.97
34297;BME280;20564;42.902;25.336;2022-07-29T12:59:22;97055.06;;;34.47;28.55
34297;BME280;20564;42.902;25.336;2022-07-29T13:01:51;97070.97;;;34.64;27.79
34297;BME280;20564;42.902;25.336;2022-07-29T13:04:32;97049.75;;;34.74;27.90
34297;BME280;20564;42.902;25.336;2022-07-29T13:07:06;97041.75;;;34.92;28.10
34297;BME280;20564;42.902;25.336;2022-07-29T13:09:41;97044.53;;;35.06;29.06
34297;BME280;20564;42.902;25.336;2022-07-29T13:12:11;97042.34;;;35.21;28.29
34297;BME280;20564;42.902;25.336;2022-07-29T13:14:46;97043.84;;;35.00;28.08
34297;BME280;20564;42.902;25.336;2022-07-29T13:17:22;97042.44;;;34.84;28.51
34297;BME280;20564;42.902;25.336;2022-07-29T13:20:06;97045.31;;;34.92;27.95
34297;BME280;20564;42.902;25.336;2022-07-29T13:22:35;97033.22;;;35.12;28.05
34297;BME280;20564;42.902;25.336;2022-07-29T13:25:02;97030.38;;;35.17;28.24
34297;BME280;20564;42.902;25.336;2022-07-29T13:27:32;97033.41;;;35.02;28.40
34297;BME280;20564;42.902;25.336;2022-07-29T13:30:00;97026.72;;;35.08;28.21
34297;BME280;20564;42.902;25.336;2022-07-29T13:32:29;97031.41;;;35.21;27.38
34297;BME280;20564;42.902;25.336;2022-07-29T13:34:59;97029.97;;;35.38;27.54
34297;BME280;20564;42.902;25.336;2022-07-29T13:37:32;97025.34;;;35.52;27.83
34297;BME280;20564;42.902;25.336;2022-07-29T13:40:02;97025.53;;;35.69;27.47
34297;BME280;20564;42.902;25.336;2022-07-29T13:42:31;97025.28;;;35.80;27.47
34297;BME280;20564;42.902;25.336;2022-07-29T13:44:59;97023.28;;;35.71;27.00
34297;BME280;20564;42.902;25.336;2022-07-29T13:47:27;97028.31;;;35.92;28.18
34297;BME280;20564;42.902;25.336;2022-07-29T13:49:59;97020.78;;;35.97;27.44
34297;BME280;20564;42.902;25.336;2022-07-29T13:52:28;97011.56;;;36.07;26.34
34297;BME280;20564;42.902;25.336;2022-07-29T13:54:55;97013.56;;;35.65;26.27
34297;BME280;20564;42.902;25.336;2022-07-29T13:57:22;97012.16;;;35.40;27.52